首页
METAR-TAF:

METAR-TAF

机场 :

亚兹德, 伊朗

纬度: 31-54N, 经度: 054-24E, 海拔: 1238米

当前天气观测

该预报发布于41分钟前的08:00 UTC
风速6节,风向西
温度 25°C
湿度 15%
气压 1016 hPa
能見度: 4000
少量云层高于4000英尺
浮尘

METAR: OIYY 030800Z 27006KT 4000 DU FEW040 25/M03 Q1016

时间: 13:11 (08:41 UTC)


TAF: 丢失

超过4000个机场的气象观测和天气预报(METAR&TAF报告)。

可查询的气象台以黄色和红色小点在地图上表示。

将鼠标移到小点上方,可查看气象台名称。

然后点击查看天气观测和预报。

如需切换地图:点击带黑十字的绿色按钮放大地图;点击带横线的绿色按钮缩小地图;或者点击绿色箭头查看邻近地区的地图。


METAR-TAF: